KLEB/LEB METAR and TAF weather

Enter ICAO airport designator
Station Type Date Time Source
KLEB METAR 2018/12/12 11:53 UTC NOAA

KLEB 121153Z 00000KT 7SM BKN019 OVC065 M08/M11 A2998 RMK AO2 SLP168 60000 T10781106 11067 21083 53020


Station Type Date Time Source
KLEB Decoded METAR 2018/12/12 11:53 UTC NOAA

LEBANON MUNICIPAL AIRPORT, NH, United States (KLEB) 43-38N 072-18W 171M
Dec 12, 2018 - 06:53 AM EST / 2018.12.12 1153 UTC
Wind: Calm:0
Visibility: 7 mile(s):0
Sky conditions: overcast
Temperature: 18.0 F (-7.8 C)
Dew Point: 12.9 F (-10.6 C)
Relative Humidity: 80%
Pressure (altimeter): 29.98 in. Hg (1015 hPa)
Pressure tendency: 0.06 inches (2.0 hPa) higher than three hours ago
ob: KLEB 121153Z 00000KT 7SM BKN019 OVC065 M08/M11 A2998 RMK AO2 SLP168 60000 T10781106 11067 21083 53020
cycle: 12

Station Type Date Time Source
KLEB TAF 2018/12/12 12:22 UTC NOAA

TAF KLEB 121120Z 1212/1312 00000KT P6SM BKN025
FM121400 34007KT P6SM SCT035
FM122200 VRB03KT P6SM SKC


Example: see airport list